createdAt,value
2018-08-25T00:00:32.595Z,98200.02
2018-08-25T00:03:01.194Z,98205.36
2018-08-25T00:05:29.736Z,98210.97
2018-08-25T00:07:58.116Z,98206.05
2018-08-25T00:10:26.755Z,98206.25
2018-08-25T00:12:55.138Z,98196.63
2018-08-25T00:15:23.503Z,98196.36
2018-08-25T00:17:53.056Z,98196.80
2018-08-25T00:20:21.589Z,98192.28
2018-08-25T00:22:50.133Z,98193.19
2018-08-25T00:25:18.408Z,98187.59
2018-08-25T00:27:46.700Z,98181.53
2018-08-25T00:30:20.629Z,98182.20
2018-08-25T00:32:49.111Z,98183.85
2018-08-25T00:35:17.483Z,98184.53
2018-08-25T00:37:45.981Z,98184.47
2018-08-25T00:40:14.907Z,98188.00
2018-08-25T00:42:43.439Z,98180.98
2018-08-25T00:45:11.650Z,98186.03
2018-08-25T00:47:40.128Z,98189.84
2018-08-25T00:50:08.556Z,98189.58
2018-08-25T00:52:36.960Z,98190.27
2018-08-25T00:55:06.064Z,98192.23
2018-08-25T00:57:34.618Z,98190.27
2018-08-25T01:00:03.033Z,98195.17
2018-08-25T01:02:31.573Z,98192.36
2018-08-25T01:05:00.165Z,98189.56
2018-08-25T01:07:28.825Z,98192.70
2018-08-25T01:09:57.934Z,98197.29
2018-08-25T01:12:26.433Z,98189.77
2018-08-25T01:14:54.928Z,98193.05
2018-08-25T01:17:23.181Z,98191.84
2018-08-25T01:19:52.027Z,98185.95
2018-08-25T01:22:20.886Z,98182.27
2018-08-25T01:24:49.113Z,98180.23
2018-08-25T01:27:17.355Z,98173.43
2018-08-25T01:29:45.806Z,98171.12
2018-08-25T01:32:14.033Z,98177.87
2018-08-25T01:34:42.848Z,98167.75
2018-08-25T01:37:11.275Z,98169.95
2018-08-25T01:39:39.521Z,98175.47
2018-08-25T01:42:08.284Z,98180.70
2018-08-25T01:44:36.496Z,98173.95
2018-08-25T01:47:05.245Z,98177.36
2018-08-25T01:49:33.561Z,98184.73
2018-08-25T01:52:01.746Z,98176.50
2018-08-25T01:54:30.193Z,98170.14
2018-08-25T01:56:58.377Z,98162.77
2018-08-25T01:59:27.220Z,98154.27
2018-08-25T02:01:55.997Z,98150.85
2018-08-25T02:04:24.191Z,98141.94
2018-08-25T02:06:52.381Z,98148.81
2018-08-25T02:09:20.686Z,98146.22
2018-08-25T02:11:49.440Z,98138.73
2018-08-25T02:14:17.616Z,98141.39
2018-08-25T02:16:45.844Z,98141.44
2018-08-25T02:19:14.577Z,98146.02
2018-08-25T02:21:42.795Z,98135.52
2018-08-25T02:24:11.067Z,98129.59
2018-08-25T02:26:39.311Z,98122.25
2018-08-25T02:29:08.150Z,98117.24
2018-08-25T02:31:36.552Z,98119.11
2018-08-25T02:34:05.089Z,98119.52
2018-08-25T02:36:33.373Z,98124.02
2018-08-25T02:39:01.849Z,98122.25
2018-08-25T02:41:30.704Z,98131.39
2018-08-25T02:43:58.916Z,98125.79
2018-08-25T02:46:27.541Z,98135.86
2018-08-25T02:48:55.790Z,98129.39
2018-08-25T02:51:24.486Z,98120.61
2018-08-25T02:53:53.241Z,98115.31
2018-08-25T02:56:22.111Z,98114.06
2018-08-25T02:58:50.592Z,98109.58
2018-08-25T03:01:18.966Z,98111.90
2018-08-25T03:03:47.161Z,98108.64
2018-08-25T03:06:15.422Z,98111.55
2018-08-25T03:08:43.646Z,98117.63
2018-08-25T03:11:12.156Z,98117.62
2018-08-25T03:13:41.141Z,98119.38
2018-08-25T03:16:09.493Z,98114.48
2018-08-25T03:18:38.736Z,98115.70
2018-08-25T03:21:07.193Z,98105.61
2018-08-25T03:23:35.608Z,98104.47
2018-08-25T03:26:03.881Z,98104.59
2018-08-25T03:28:32.422Z,98100.17
2018-08-25T03:31:01.265Z,98090.91
2018-08-25T03:33:29.527Z,98095.06
2018-08-25T03:35:58.272Z,98090.16
2018-08-25T03:38:26.527Z,98097.72
2018-08-25T03:40:56.256Z,98091.18
2018-08-25T03:43:24.945Z,98092.29
2018-08-25T03:45:53.463Z,98087.11
2018-08-25T03:48:22.340Z,98087.16
2018-08-25T03:50:51.618Z,98081.78
2018-08-25T03:53:19.880Z,98082.20
2018-08-25T03:55:49.724Z,98081.45
2018-08-25T03:58:18.208Z,98077.29
2018-08-25T04:00:46.827Z,98078.43
2018-08-25T04:03:15.913Z,98083.50
2018-08-25T04:05:44.800Z,98082.67
2018-08-25T04:08:13.868Z,98081.77
2018-08-25T04:10:42.452Z,98077.08
2018-08-25T04:13:11.145Z,98079.30
2018-08-25T04:15:40.887Z,98078.64
2018-08-25T04:18:09.467Z,98081.14
2018-08-25T04:20:38.248Z,98085.02
2018-08-25T04:23:07.970Z,98079.45
2018-08-25T04:25:36.966Z,98076.99
2018-08-25T04:28:06.150Z,98078.61
2018-08-25T04:30:34.631Z,98077.80
2018-08-25T04:33:03.283Z,98072.87
2018-08-25T04:35:34.409Z,98076.16
2018-08-25T04:38:04.243Z,98083.34
2018-08-25T04:40:33.769Z,98076.38
2018-08-25T04:43:02.769Z,98077.47
2018-08-25T04:45:31.776Z,98067.04
2018-08-25T04:48:00.637Z,98070.99
2018-08-25T04:50:29.756Z,98072.35
2018-08-25T04:52:58.376Z,98073.56
2018-08-25T04:55:26.678Z,98070.23
2018-08-25T04:57:55.886Z,98070.71
2018-08-25T05:00:24.268Z,98077.80
2018-08-25T05:02:53.649Z,98068.05
2018-08-25T05:05:23.367Z,98066.64
2018-08-25T05:07:51.992Z,98059.86
2018-08-25T05:10:20.230Z,98064.59
2018-08-25T05:12:49.669Z,98069.50
2018-08-25T05:15:19.173Z,98063.93
2018-08-25T05:17:47.848Z,98059.77
2018-08-25T05:20:16.481Z,98058.75
2018-08-25T05:22:46.165Z,98054.39
2018-08-25T05:25:14.987Z,98054.16
2018-08-25T05:27:43.508Z,98053.88
2018-08-25T05:30:12.221Z,98055.58
2018-08-25T05:32:40.981Z,98054.59
2018-08-25T05:35:09.485Z,98054.70
2018-08-25T05:37:38.406Z,98051.98
2018-08-25T05:40:07.082Z,98049.21
2018-08-25T05:42:36.127Z,98053.63
2018-08-25T05:45:04.823Z,98055.11
2018-08-25T05:47:33.281Z,98053.20
2018-08-25T05:50:01.623Z,98056.85
2018-08-25T05:52:29.836Z,98052.48
2018-08-25T05:54:58.338Z,98059.11
2018-08-25T05:57:27.850Z,98059.23
2018-08-25T05:59:56.528Z,98050.20
2018-08-25T06:02:25.728Z,98052.32
2018-08-25T06:04:54.066Z,98048.89
2018-08-25T06:07:22.280Z,98047.55
2018-08-25T06:09:50.640Z,98037.00
2018-08-25T06:12:19.770Z,98042.64
2018-08-25T06:14:49.561Z,98039.36
2018-08-25T06:17:18.057Z,98038.96
2018-08-25T06:19:47.333Z,98044.41
2018-08-25T06:22:16.686Z,98040.95
2018-08-25T06:24:45.244Z,98040.13
2018-08-25T06:27:14.365Z,98046.41
2018-08-25T06:29:42.728Z,98046.58
2018-08-25T06:32:11.068Z,98040.70
2018-08-25T06:34:40.041Z,98046.28
2018-08-25T06:37:08.346Z,98051.56
2018-08-25T06:39:37.508Z,98047.79
2018-08-25T06:42:06.952Z,98047.91
2018-08-25T06:44:35.805Z,98047.95
2018-08-25T06:47:05.021Z,98049.05
2018-08-25T06:49:33.389Z,98044.07
2018-08-25T06:52:01.868Z,98049.73
2018-08-25T06:54:30.675Z,98047.97
2018-08-25T06:56:58.959Z,98052.86
2018-08-25T06:59:27.633Z,98049.13
2018-08-25T07:01:55.923Z,98050.30
2018-08-25T07:04:24.873Z,98058.35
2018-08-25T07:06:53.177Z,98060.55
2018-08-25T07:09:21.559Z,98065.84
2018-08-25T07:11:50.534Z,98060.73
2018-08-25T07:14:19.130Z,98068.77
2018-08-25T07:16:48.016Z,98071.71
2018-08-25T07:19:16.513Z,98073.79
2018-08-25T07:21:45.314Z,98070.45
2018-08-25T07:24:13.804Z,98069.95
2018-08-25T07:26:42.438Z,98080.75
2018-08-25T07:29:10.817Z,98079.45
2018-08-25T07:31:39.289Z,98081.58
2018-08-25T07:34:08.260Z,98089.11
2018-08-25T07:36:36.592Z,98101.09
2018-08-25T07:39:09.351Z,98103.91
2018-08-25T07:41:37.759Z,98096.94
2018-08-25T07:44:07.305Z,98099.54
2018-08-25T07:46:35.990Z,98090.03
2018-08-25T07:49:04.767Z,98099.48
2018-08-25T07:51:35.174Z,98095.20
2018-08-25T07:54:03.941Z,98100.63
2018-08-25T07:56:32.142Z,98097.98
2018-08-25T07:59:00.663Z,98099.80
2018-08-25T08:01:30.017Z,98103.92
2018-08-25T08:03:59.951Z,98099.62
2018-08-25T08:06:29.682Z,98104.70
2018-08-25T08:08:58.227Z,98095.27
2018-08-25T08:11:27.113Z,98092.17
2018-08-25T08:13:56.196Z,98099.46
2018-08-25T08:16:24.886Z,98103.42
2018-08-25T08:18:53.482Z,98104.52
2018-08-25T08:21:22.357Z,98103.39
2018-08-25T08:23:50.650Z,98112.05
2018-08-25T08:26:20.281Z,98120.22
2018-08-25T08:28:49.648Z,98107.95
2018-08-25T08:31:18.109Z,98117.81
2018-08-25T08:33:46.723Z,98108.49
2018-08-25T08:36:15.705Z,98121.86
2018-08-25T08:38:44.964Z,98117.22
2018-08-25T08:41:14.985Z,98107.12
2018-08-25T08:43:44.312Z,98111.41
2018-08-25T08:46:18.763Z,98116.52
2018-08-25T08:48:47.297Z,98117.63
2018-08-25T08:51:16.234Z,98131.70
2018-08-25T08:53:45.215Z,98117.13
2018-08-25T08:56:14.435Z,98123.21
2018-08-25T08:58:42.788Z,98119.30
2018-08-25T09:01:13.159Z,98124.52
2018-08-25T09:03:42.324Z,98122.67
2018-08-25T09:06:12.484Z,98131.05
2018-08-25T09:08:41.107Z,98135.91
2018-08-25T09:11:10.980Z,98128.25
2018-08-25T09:13:39.244Z,98136.84
2018-08-25T09:16:07.863Z,98140.32
2018-08-25T09:18:37.760Z,98141.11
2018-08-25T09:21:06.029Z,98139.39
2018-08-25T09:23:35.786Z,98148.44
2018-08-25T09:26:04.566Z,98145.36
2018-08-25T09:28:33.502Z,98140.13
2018-08-25T09:31:02.983Z,98143.23
2018-08-25T09:33:31.800Z,98162.48
2018-08-25T09:36:01.765Z,98158.15
2018-08-25T09:38:30.880Z,98147.06
2018-08-25T09:41:00.720Z,98149.50
2018-08-25T09:43:30.664Z,98143.20
2018-08-25T09:46:00.535Z,98142.33
2018-08-25T09:48:29.275Z,98141.81
2018-08-25T09:50:58.744Z,98144.75
2018-08-25T09:53:28.568Z,98146.05
2018-08-25T09:55:56.836Z,98149.02
2018-08-25T09:58:25.097Z,98146.03
2018-08-25T10:00:59.600Z,98157.23
2018-08-25T10:03:28.447Z,98151.86
2018-08-25T10:05:57.314Z,98149.28
2018-08-25T10:08:26.455Z,98151.55
2018-08-25T10:10:56.642Z,98148.74
2018-08-25T10:13:25.262Z,98154.19
2018-08-25T10:15:54.082Z,98152.09
2018-08-25T10:18:22.942Z,98151.48
2018-08-25T10:20:51.298Z,98155.45
2018-08-25T10:23:21.112Z,98161.33
2018-08-25T10:25:50.180Z,98161.38
2018-08-25T10:28:19.583Z,98154.69
2018-08-25T10:30:48.702Z,98158.05
2018-08-25T10:33:18.078Z,98161.61
2018-08-25T10:35:46.715Z,98164.84
2018-08-25T10:38:15.182Z,98158.02
2018-08-25T10:40:43.727Z,98158.89
2018-08-25T10:43:12.138Z,98160.17
2018-08-25T10:45:42.916Z,98152.23
2018-08-25T10:48:11.824Z,98157.16
2018-08-25T10:50:40.096Z,98156.41
2018-08-25T10:53:10.535Z,98161.58
2018-08-25T10:55:38.845Z,98153.88
2018-08-25T10:58:07.588Z,98159.28
2018-08-25T11:00:36.249Z,98153.48
2018-08-25T11:03:04.963Z,98164.08
2018-08-25T11:05:34.723Z,98167.50
2018-08-25T11:08:05.089Z,98167.33
2018-08-25T11:10:33.248Z,98162.58
2018-08-25T11:13:01.919Z,98164.44
2018-08-25T11:15:31.856Z,98161.16
2018-08-25T11:18:00.120Z,98162.80
2018-08-25T11:20:33.292Z,98161.00
2018-08-25T11:23:01.867Z,98163.87
2018-08-25T11:25:30.603Z,98167.77
2018-08-25T11:27:59.183Z,98172.30
2018-08-25T11:30:28.099Z,98169.24
2018-08-25T11:32:57.706Z,98173.38
2018-08-25T11:35:27.777Z,98175.14
2018-08-25T11:37:56.462Z,98167.58
2018-08-25T11:40:25.116Z,98176.66
2018-08-25T11:42:54.416Z,98168.76
2018-08-25T11:45:24.756Z,98163.14
2018-08-25T11:47:53.203Z,98165.56
2018-08-25T11:50:22.594Z,98161.59
2018-08-25T11:53:01.887Z,98158.55
2018-08-25T11:55:30.257Z,98157.83
2018-08-25T11:57:58.548Z,98156.52
2018-08-25T12:00:27.208Z,98152.22
2018-08-25T12:02:55.697Z,98158.08
2018-08-25T12:05:24.844Z,98158.77
2018-08-25T12:07:54.248Z,98157.27
2018-08-25T12:10:23.284Z,98160.80
2018-08-25T12:12:51.504Z,98162.70
2018-08-25T12:15:20.859Z,98158.67
2018-08-25T12:17:49.265Z,98158.42
2018-08-25T12:20:17.924Z,98162.44
2018-08-25T12:22:46.606Z,98162.88
2018-08-25T12:25:15.016Z,98161.41
2018-08-25T12:27:43.428Z,98156.52
2018-08-25T12:30:12.655Z,98152.14
2018-08-25T12:32:41.571Z,98152.34
2018-08-25T12:35:10.350Z,98152.20
2018-08-25T12:37:38.961Z,98146.45
2018-08-25T12:40:08.497Z,98144.13
2018-08-25T12:42:38.408Z,98139.84
2018-08-25T12:45:08.101Z,98136.25
2018-08-25T12:47:37.362Z,98135.17
2018-08-25T12:50:06.781Z,98147.59
2018-08-25T12:52:35.096Z,98151.84
2018-08-25T12:55:04.133Z,98151.50
2018-08-25T12:57:32.605Z,98143.47
2018-08-25T13:00:01.504Z,98151.66
2018-08-25T13:02:30.735Z,98142.15
2018-08-25T13:04:59.156Z,98141.44
2018-08-25T13:07:27.576Z,98146.05
2018-08-25T13:09:56.655Z,98157.17
2018-08-25T13:12:25.221Z,98153.94
2018-08-25T13:14:54.293Z,98145.09
2018-08-25T13:17:23.724Z,98154.25
2018-08-25T13:19:52.243Z,98143.85
2018-08-25T13:22:20.660Z,98142.42
2018-08-25T13:24:49.282Z,98137.49
2018-08-25T13:27:17.571Z,98142.86
2018-08-25T13:29:46.243Z,98136.25
2018-08-25T13:32:15.676Z,98140.59
2018-08-25T13:34:44.147Z,98128.10
2018-08-25T13:37:12.734Z,98137.71
2018-08-25T13:39:41.948Z,98138.41
2018-08-25T13:42:11.383Z,98148.16
2018-08-25T13:44:39.812Z,98140.47
2018-08-25T13:47:08.879Z,98146.55
2018-08-25T13:49:37.257Z,98144.42
2018-08-25T13:52:06.426Z,98144.30
2018-08-25T13:54:34.745Z,98143.50
2018-08-25T13:57:03.347Z,98149.58
2018-08-25T13:59:31.569Z,98151.31
2018-08-25T14:02:00.016Z,98154.94
2018-08-25T14:04:28.668Z,98157.36
2018-08-25T14:06:57.404Z,98161.27
2018-08-25T14:09:25.982Z,98159.05
2018-08-25T14:11:54.308Z,98161.64
2018-08-25T14:14:24.110Z,98168.47
2018-08-25T14:16:53.158Z,98166.01
2018-08-25T14:19:22.806Z,98162.16
2018-08-25T14:21:51.121Z,98160.20
2018-08-25T14:24:19.798Z,98156.95
2018-08-25T14:26:48.393Z,98153.89
2018-08-25T14:29:17.883Z,98154.61
2018-08-25T14:31:46.228Z,98146.33
2018-08-25T14:34:15.110Z,98138.77
2018-08-25T14:36:43.590Z,98140.98
2018-08-25T14:39:12.274Z,98136.88
2018-08-25T14:41:42.180Z,98135.52
2018-08-25T14:44:10.708Z,98132.28
2018-08-25T14:46:39.693Z,98128.30
2018-08-25T14:49:07.985Z,98129.44
2018-08-25T14:51:39.200Z,98127.06
2018-08-25T14:54:09.336Z,98118.01
2018-08-25T14:56:42.176Z,98115.86
2018-08-25T14:59:17.314Z,98115.67
2018-08-25T15:01:49.604Z,98116.02
2018-08-25T15:04:19.025Z,98116.66
2018-08-25T15:06:48.333Z,98125.36
2018-08-25T15:09:27.335Z,98124.45
2018-08-25T15:11:55.894Z,98133.91
2018-08-25T15:14:27.199Z,98129.86
2018-08-25T15:16:55.644Z,98132.51
2018-08-25T15:19:23.969Z,98128.45
2018-08-25T15:22:12.793Z,98133.38
2018-08-25T15:24:41.068Z,98133.34
2018-08-25T15:27:10.688Z,98136.53
2018-08-25T15:29:39.887Z,98131.48
2018-08-25T15:32:09.537Z,98135.28
2018-08-25T15:34:37.779Z,98133.55
2018-08-25T15:37:06.807Z,98133.48
2018-08-25T15:39:35.361Z,98143.85
2018-08-25T15:42:04.221Z,98142.78
2018-08-25T15:44:33.420Z,98145.47
2018-08-25T15:47:02.222Z,98137.05
2018-08-25T15:49:31.638Z,98138.65
2018-08-25T15:52:01.678Z,98150.20
2018-08-25T15:54:30.237Z,98156.59
2018-08-25T15:56:59.249Z,98149.42
2018-08-25T15:59:28.304Z,98151.83
2018-08-25T16:01:57.435Z,98149.23
2018-08-25T16:04:28.333Z,98142.75
2018-08-25T16:06:56.831Z,98145.38
2018-08-25T16:09:32.018Z,98151.72
2018-08-25T16:12:02.254Z,98157.34
2018-08-25T16:14:31.340Z,98154.12
2018-08-25T16:16:59.772Z,98154.94
2018-08-25T16:19:28.910Z,98157.28
2018-08-25T16:21:58.411Z,98158.70
2018-08-25T16:24:27.627Z,98150.84
2018-08-25T16:26:58.246Z,98159.45
2018-08-25T16:29:27.565Z,98160.05
2018-08-25T16:31:56.674Z,98158.66
2018-08-25T16:34:25.430Z,98158.36
2018-08-25T16:36:55.079Z,98164.72
2018-08-25T16:39:23.934Z,98155.00
2018-08-25T16:41:52.305Z,98151.60
2018-08-25T16:44:21.161Z,98154.66
2018-08-25T16:46:49.855Z,98152.48
2018-08-25T16:49:18.171Z,98157.26
2018-08-25T16:51:46.416Z,98158.67
2018-08-25T16:54:14.847Z,98163.23
2018-08-25T16:56:43.598Z,98161.90
2018-08-25T16:59:13.639Z,98157.42
2018-08-25T17:01:42.370Z,98156.06
2018-08-25T17:04:11.590Z,98158.90
2018-08-25T17:06:42.323Z,98151.55
2018-08-25T17:09:11.756Z,98154.70
2018-08-25T17:11:41.009Z,98151.58
2018-08-25T17:14:10.653Z,98152.62
2018-08-25T17:16:42.303Z,98156.30
2018-08-25T17:19:11.488Z,98153.57
2018-08-25T17:21:41.566Z,98155.12
2018-08-25T17:24:10.196Z,98162.56
2018-08-25T17:26:38.694Z,98167.76
2018-08-25T17:29:07.457Z,98170.78
2018-08-25T17:31:39.558Z,98165.65
2018-08-25T17:34:08.645Z,98170.27
2018-08-25T17:36:37.333Z,98177.59
2018-08-25T17:39:10.972Z,98178.70
2018-08-25T17:41:41.308Z,98175.61
2018-08-25T17:44:12.439Z,98174.37
2018-08-25T17:46:42.645Z,98181.75
2018-08-25T17:49:11.868Z,98177.13
2018-08-25T17:51:41.461Z,98179.00
2018-08-25T17:54:10.351Z,98177.00
2018-08-25T17:56:38.726Z,98188.73
2018-08-25T17:59:08.653Z,98189.30
2018-08-25T18:01:37.080Z,98193.95
2018-08-25T18:04:05.379Z,98196.66
2018-08-25T18:06:34.311Z,98197.37
2018-08-25T18:09:04.728Z,98202.32
2018-08-25T18:11:34.470Z,98204.76
2018-08-25T18:14:11.197Z,98203.96
2018-08-25T18:16:39.840Z,98210.10
2018-08-25T18:19:08.199Z,98210.56
2018-08-25T18:21:39.051Z,98217.62
2018-08-25T18:24:08.427Z,98223.44
2018-08-25T18:26:37.370Z,98228.81
2018-08-25T18:29:06.875Z,98227.05
2018-08-25T18:31:35.788Z,98236.05
2018-08-25T18:34:04.625Z,98229.23
2018-08-25T18:36:34.132Z,98235.73
2018-08-25T18:39:03.550Z,98240.29
2018-08-25T18:41:32.012Z,98242.69
2018-08-25T18:44:02.739Z,98241.16
2018-08-25T18:46:32.472Z,98240.22
2018-08-25T18:49:01.432Z,98243.20
2018-08-25T18:51:30.744Z,98250.02
2018-08-25T18:54:01.104Z,98257.22
2018-08-25T18:56:33.741Z,98260.44
2018-08-25T18:59:04.264Z,98263.50
2018-08-25T19:01:34.902Z,98269.23
2018-08-25T19:04:03.613Z,98271.56
2018-08-25T19:06:34.023Z,98282.91
2018-08-25T19:09:06.216Z,98275.67
2018-08-25T19:11:35.352Z,98282.59
2018-08-25T19:14:04.246Z,98284.00
2018-08-25T19:16:35.922Z,98279.14
2018-08-25T19:19:06.415Z,98295.44
2018-08-25T19:21:36.022Z,98298.81
2018-08-25T19:24:06.225Z,98298.53
2018-08-25T19:26:41.379Z,98304.78
2018-08-25T19:29:12.464Z,98309.28
2018-08-25T19:31:46.059Z,98303.23
2018-08-25T19:34:17.848Z,98315.14
2018-08-25T19:36:47.504Z,98315.34
2018-08-25T19:39:18.687Z,98319.03
2018-08-25T19:41:49.078Z,98323.87
2018-08-25T19:44:18.825Z,98320.98
2018-08-25T19:46:47.196Z,98324.45
2018-08-25T19:49:17.396Z,98324.81
2018-08-25T19:51:47.652Z,98324.59
2018-08-25T19:54:17.189Z,98330.13
2018-08-25T19:56:45.926Z,98326.36
2018-08-25T19:59:15.083Z,98332.51
2018-08-25T20:01:47.169Z,98327.13
2018-08-25T20:04:17.849Z,98326.92
2018-08-25T20:06:46.408Z,98326.09
2018-08-25T20:09:15.604Z,98330.08
2018-08-25T20:11:46.135Z,98325.52
2018-08-25T20:14:17.480Z,98329.72
2018-08-25T20:16:46.400Z,98329.65
2018-08-25T20:19:15.905Z,98329.29
2018-08-25T20:21:46.280Z,98327.79
2018-08-25T20:24:16.557Z,98333.03
2018-08-25T20:26:46.864Z,98333.17
2018-08-25T20:29:15.258Z,98334.38
2018-08-25T20:31:44.070Z,98334.25
2018-08-25T20:34:13.554Z,98333.67
2018-08-25T20:36:42.319Z,98335.56
2018-08-25T20:39:11.377Z,98343.23
2018-08-25T20:41:39.928Z,98343.92
2018-08-25T20:44:08.881Z,98353.78
2018-08-25T20:46:39.645Z,98346.73
2018-08-25T20:49:08.813Z,98348.86
2018-08-25T20:51:39.218Z,98353.30
2018-08-25T20:54:08.557Z,98354.26
2018-08-25T20:56:37.568Z,98361.77
2018-08-25T20:59:12.498Z,98359.76
2018-08-25T21:01:48.452Z,98363.19
2018-08-25T21:04:17.555Z,98363.76
2018-08-25T21:06:46.425Z,98363.76
2018-08-25T21:09:15.747Z,98363.64
2018-08-25T21:11:44.951Z,98369.16
2018-08-25T21:14:14.405Z,98361.20
2018-08-25T21:16:43.588Z,98367.76
2018-08-25T21:19:13.728Z,98367.67
2018-08-25T21:21:42.995Z,98370.70
2018-08-25T21:24:11.840Z,98372.59
2018-08-25T21:26:40.095Z,98371.89
2018-08-25T21:29:08.802Z,98370.70
2018-08-25T21:31:38.966Z,98368.26
2018-08-25T21:34:09.571Z,98372.59
2018-08-25T21:36:40.873Z,98369.33
2018-08-25T21:39:12.687Z,98374.12
2018-08-25T21:41:43.584Z,98374.23
2018-08-25T21:44:12.501Z,98377.30
2018-08-25T21:46:42.648Z,98379.05
2018-08-25T21:49:13.706Z,98385.27
2018-08-25T21:51:44.706Z,98385.86
2018-08-25T21:54:15.555Z,98385.61
2018-08-25T21:56:44.895Z,98385.73
2018-08-25T21:59:15.078Z,98391.86
2018-08-25T22:01:48.530Z,98390.77
2018-08-25T22:04:17.501Z,98388.44
2018-08-25T22:06:45.865Z,98386.91
2018-08-25T22:09:15.007Z,98382.94
2018-08-25T22:11:45.319Z,98392.19
2018-08-25T22:14:14.408Z,98389.84
2018-08-25T22:16:44.165Z,98393.13
2018-08-25T22:19:12.938Z,98389.50
2018-08-25T22:21:42.094Z,98392.66
2018-08-25T22:24:11.250Z,98393.36
2018-08-25T22:26:40.655Z,98397.70
2018-08-25T22:29:10.903Z,98400.41
2018-08-25T22:31:41.761Z,98401.81
2018-08-25T22:34:10.188Z,98402.40
2018-08-25T22:36:38.669Z,98398.75
2018-08-25T22:39:10.242Z,98402.86
2018-08-25T22:41:39.370Z,98408.49
2018-08-25T22:44:10.006Z,98408.01
2018-08-25T22:46:39.039Z,98410.83
2018-08-25T22:49:08.845Z,98419.58
2018-08-25T22:51:42.036Z,98420.23
2018-08-25T22:54:10.380Z,98427.36
2018-08-25T22:56:39.613Z,98434.40
2018-08-25T22:59:09.922Z,98441.38
2018-08-25T23:01:43.202Z,98447.52
2018-08-25T23:04:12.959Z,98446.34
2018-08-25T23:06:45.966Z,98444.54
2018-08-25T23:09:14.622Z,98443.32
2018-08-25T23:11:45.010Z,98445.16
2018-08-25T23:14:15.611Z,98447.41
2018-08-25T23:16:46.254Z,98445.24
2018-08-25T23:19:16.650Z,98450.68
2018-08-25T23:21:46.713Z,98457.46
2018-08-25T23:24:15.370Z,98451.12
2018-08-25T23:26:45.188Z,98453.98
2018-08-25T23:29:14.585Z,98447.94
2018-08-25T23:31:45.474Z,98448.25
2018-08-25T23:34:14.917Z,98448.02
2018-08-25T23:36:45.205Z,98448.42
2018-08-25T23:39:16.047Z,98453.47
2018-08-25T23:41:45.599Z,98452.97
2018-08-25T23:44:14.193Z,98454.25
2018-08-25T23:46:43.975Z,98448.31
2018-08-25T23:49:14.192Z,98451.63
2018-08-25T23:51:44.451Z,98458.50
2018-08-25T23:54:12.983Z,98461.98
2018-08-25T23:56:41.364Z,98460.13
2018-08-25T23:59:11.407Z,98455.81
